This is the latest recevied weather packets stored in our database for station/object DG0PX-12. If no packets are shown the sender has not sent any weather packets the latest 10 day(s).
| Time | Temp. | Humidity | Pressure | Rain* | Wind** | Luminosity | Snow |
|---|---|---|---|---|---|---|---|
| 1787621360 | 21.11° C | 57% | 943.5 hPa | - | - | - | - |
| 1787620460 | 21.11° C | 54% | 943.7 hPa | - | - | - | - |
| 1787619560 | 22.22° C | 50% | 943.8 hPa | - | - | - | - |
| 1787618660 | 20.56° C | 54% | 943.7 hPa | - | - | - | - |
| 1787617760 | 21.11° C | 53% | 943.6 hPa | - | - | - | - |
| 1787616860 | 21.67° C | 53% | 943.8 hPa | - | - | - | - |
| 1787615960 | 22.22° C | 50% | 944.1 hPa | - | - | - | - |
| 1787615060 | 20.56° C | 58% | 944.1 hPa | - | - | - | - |
| 1787614160 | 22.78° C | 51% | 944.9 hPa | - | - | - | - |
| 1787613260 | 22.78° C | 50% | 945 hPa | - | - | - | - |
| 1787612360 | 22.78° C | 50% | 945.2 hPa | - | - | - | - |
| 1787611460 | 22.22° C | 55% | 945.4 hPa | - | - | - | - |
| 1787610560 | 22.78° C | 54% | 945.8 hPa | - | - | - | - |
| 1787609660 | 21.67° C | 59% | 945.9 hPa | - | - | - | - |
| 1787608760 | 22.78° C | 55% | 946.3 hPa | - | - | - | - |
| 1787607859 | 23.89° C | 51% | 946.4 hPa | - | - | - | - |
| 1787606959 | 21.11° C | 61% | 946.1 hPa | - | - | - | - |
| 1787606059 | 23.89° C | 52% | 946.4 hPa | - | - | - | - |
| 1787605159 | 23.33° C | 52% | 946.7 hPa | - | - | - | - |
| 1787604259 | 25° C | 50% | 947 hPa | - | - | - | - |
| 1787603359 | 24.44° C | 51% | 947.5 hPa | - | - | - | - |
| 1787602459 | 25° C | 46% | 947.5 hPa | - | - | - | - |
| 1787601559 | 24.44° C | 49% | 947.4 hPa | - | - | - | - |
| 1787600659 | 24.44° C | 49% | 947.4 hPa | - | - | - | - |
| 1787599759 | 25° C | 49% | 947.4 hPa | - | - | - | - |
* Rain since midnight (hover to see other rain measurements)
** Current wind speed in m/s (hover to see current wind gust speed)